Denver, CO (80208)

9:23 PM MST on December 28, 2014 (GMT -0700)
DU - Downing and Evans | Change Station
CLOSE
Current Station
Personal Weather Station
Location: Denver, CO
Elevation: 5354 ft
Nearby Weather Stations
Active Advisory: Winter Weather Advisory

Elev 5354 ft 39.68 °N, 104.97 °W | Updated 0 second ago

Partly Cloudy
Partly Cloudy
21.0 °F
Feels Like 21 °F
N
0.0
Wind Variable Wind from SW
Gusts 0.0 mph

Today
High -- | Low -- °F
--% Chance of Precip.
Yesterday
High -- | Low -- °F
Precip. -- in
7:19 AM 4:43 PM
First Quarter, 54% visible
Pressure 30.10 in
Visibility 10.0 miles
Clouds Scattered Clouds 8000 ft
Mostly Cloudy 11000 ft
Windchill 21 °F
Dew Point 5 °F
Humidity 49%
Rainfall 0.04 in
Snow Depth Not available.
UV 0 out of 12
Pollen .10 out of 12
Air Quality Not available.
Flu Activity Not available.
METAR KAPA 290353Z 21005KT 10SM SCT080 BKN110 M08/M13 A2991 RMK AO2 SLP192 T10781128

More Conditions Fewer Conditions

Pressure 30.10 in
Visibility 10.0 miles
Clouds Scattered Clouds 8000 ft
Mostly Cloudy 11000 ft
Windchill 21 °F
Dew Point 5 °F
Humidity 49%
Rainfall 0.04 in
Snow Depth Not available.
UV 0 out of 12
Pollen .10 out of 12
Air Quality Not available.
Flu Activity Not available.
METAR KAPA 290353Z 21005KT 10SM SCT080 BKN110 M08/M13 A2991 RMK AO2 SLP192 T10781128

More Conditions Fewer Conditions

10-Day Weather Forecast

Almanac

Astronomy

Dec. 28, 2014 Rise Set
Actual Time
Civil Twilight
Nautical Twilight
Astronomical Twilight
Moon
Length of Visible Light
Length of Day
Tomorrow will be .
, % of the Moon is Illuminated

Today's Extremes

State Highs State Lows

Community

WunderPhotos

Upload Photos

1,781,534 photos uploaded!

WunderBlogs® & News

Nearby

Air Quality

  Air Quality AQ Index Pollutant
Not available.

Snow Depth

Station Depth Elevation

Earthquake Activity

City Distance Mag. Time & Date
Minimum magnitude displayed is 2.5.

Coastal Water Temperatures

Place Temperature

Nearby Weather Stations